Time;durP1;ratioP1;P1;durP2;ratioP2;P2;SDS_P1;SDS_P2;PMS_P1;PMS_P2;Temp;Humidity;BMP_temperature;BMP_pressure;BME280_temperature;BME280_humidity;BME280_pressure;Samples;Min_cycle;Max_cycle;Signal;HPM_P1;HPM_P2
2024/01/15 00:01:48;;;;;;;1.63;1.53;;;;;;;0.54;61.40;94947.94;5134605;27;21027;-55
2024/01/15 00:04:18;;;;;;;3.10;2.90;;;;;;;0.61;61.54;94948.66;5134677;27;20466;-55
2024/01/15 00:06:47;;;;;;;9.80;3.97;;;;;;;0.59;61.15;94945.50;5134926;27;20844;-54
2024/01/15 00:09:15;;;;;;;4.87;2.50;;;;;;;0.23;61.73;94896.72;5134539;27;20531;-55
2024/01/15 00:11:44;;;;;;;7.20;2.27;;;;;;;0.17;61.81;94887.19;5134271;27;20445;-55
2024/01/15 00:14:14;;;;;;;2.30;2.20;;;;;;;0.52;61.62;94939.53;5133808;27;20434;-54
2024/01/15 00:16:43;;;;;;;3.10;1.23;;;;;;;0.60;61.54;94940.06;5134302;27;20897;-55
2024/01/15 00:19:12;;;;;;;2.10;1.90;;;;;;;0.21;61.46;94884.91;5134801;27;20442;-55
2024/01/15 00:21:42;;;;;;;4.20;2.30;;;;;;;0.42;61.79;94928.81;5134271;27;20442;-55
2024/01/15 00:24:12;;;;;;;1.53;1.53;;;;;;;0.58;61.24;94936.09;5134195;27;20938;-55
2024/01/15 00:26:41;;;;;;;3.40;3.20;;;;;;;0.57;61.65;94948.31;5134594;27;20489;-54
2024/01/15 00:29:10;;;;;;;2.30;2.10;;;;;;;0.17;61.84;94896.78;5134094;27;20530;-55
2024/01/15 00:31:38;;;;;;;4.97;1.90;;;;;;;0.46;61.50;94949.03;5134140;27;20434;-56
2024/01/15 00:34:07;;;;;;;1.03;1.03;;;;;;;0.46;61.61;94951.63;5134353;27;20434;-56
2024/01/15 00:36:36;;;;;;;1.43;0.90;;;;;;;0.53;61.49;94954.19;5134246;27;20442;-56
2024/01/15 00:39:06;;;;;;;4.83;1.20;;;;;;;0.53;61.74;94946.38;5134448;27;20448;-56
2024/01/15 00:41:34;;;;;;;2.40;1.80;;;;;;;0.60;61.74;94937.47;5134624;27;20445;-56
2024/01/15 00:44:03;;;;;;;1.23;1.13;;;;;;;0.54;61.96;94940.94;5134024;27;20873;-56
2024/01/15 00:46:32;;;;;;;3.70;0.80;;;;;;;0.18;61.95;94907.00;5122312;27;20435;-55
2024/01/15 00:49:00;;;;;;;0.83;0.83;;;;;;;0.43;61.84;94951.28;5132449;27;20448;-55
2024/01/15 00:51:29;;;;;;;1.40;1.30;;;;;;;0.35;62.16;94938.53;5133601;27;20845;-55
2024/01/15 00:53:58;;;;;;;0.80;0.70;;;;;;;0.38;62.09;94927.66;5132609;27;21009;-56
2024/01/15 00:56:28;;;;;;;5.03;1.70;;;;;;;0.46;61.48;94943.81;5133564;27;20454;-55
2024/01/15 00:58:56;;;;;;;6.57;2.27;;;;;;;0.25;62.57;94931.19;5107387;27;20438;-55
2024/01/15 01:01:25;;;;;;;2.07;1.90;;;;;;;0.41;62.34;94932.44;5133397;27;20431;-55
2024/01/15 01:03:54;;;;;;;0.97;0.97;;;;;;;-0.13;62.56;94865.41;5133407;27;20507;-55
2024/01/15 01:06:23;;;;;;;8.50;2.70;;;;;;;0.33;62.54;94940.56;5133765;27;20430;-55
2024/01/15 01:08:51;;;;;;;2.50;1.17;;;;;;;-0.24;64.20;94928.59;5133489;27;20605;-55
2024/01/15 01:11:19;;;;;;;2.73;2.20;;;;;;;-0.20;63.92;94903.72;5133129;27;20478;-55
2024/01/15 01:13:49;;;;;;;2.13;2.03;;;;;;;-0.01;63.86;94934.84;5133198;27;20474;-55
2024/01/15 01:16:18;;;;;;;3.07;1.47;;;;;;;-0.68;64.65;94849.63;5133382;27;20443;-55
2024/01/15 01:18:46;;;;;;;7.10;2.60;;;;;;;-0.18;63.92;94889.47;5133348;27;20445;-55
2024/01/15 01:21:15;;;;;;;3.03;2.83;;;;;;;0.16;64.38;94929.06;5133396;27;21047;-55
2024/01/15 01:23:44;;;;;;;2.00;1.90;;;;;;;0.21;63.78;94917.00;5133193;27;20446;-55
2024/01/15 01:26:16;;;;;;;2.47;2.27;;;;;;;0.06;64.27;94903.50;5132595;27;20529;-55
2024/01/15 01:28:44;;;;;;;6.43;3.30;;;;;;;-0.16;63.74;94916.13;5133399;27;20820;-55
2024/01/15 01:31:16;;;;;;;3.87;3.60;;;;;;;0.00;63.80;94907.75;5132405;27;21231;-56
2024/01/15 01:33:45;;;;;;;1.90;1.80;;;;;;;0.24;63.22;94906.13;5133154;27;20446;-55
2024/01/15 01:36:14;;;;;;;8.03;1.90;;;;;;;0.26;63.47;94904.09;5132834;27;20445;-55
2024/01/15 01:38:42;;;;;;;4.90;2.07;;;;;;;-0.03;63.83;94916.00;5132674;27;20438;-55
2024/01/15 01:41:11;;;;;;;3.33;1.50;;;;;;;-0.49;63.87;94849.69;5132799;27;20438;-55
2024/01/15 01:43:39;;;;;;;9.03;3.43;;;;;;;-0.13;64.59;94920.88;5131916;27;21019;-55
2024/01/15 01:46:08;;;;;;;1.50;1.43;;;;;;;-0.98;66.16;94833.00;5132580;27;20434;-55
2024/01/15 01:48:39;;;;;;;2.90;2.13;;;;;;;-0.19;65.14;94921.75;5132711;27;20435;-56
2024/01/15 01:51:08;;;;;;;1.67;1.43;;;;;;;-0.28;65.54;94928.22;5132908;27;20481;-56
2024/01/15 01:53:39;;;;;;;3.27;2.33;;;;;;;-0.56;66.49;94907.00;5132320;27;20501;-55
2024/01/15 01:56:08;;;;;;;4.53;1.30;;;;;;;-0.85;66.65;94877.16;5131819;27;20962;-55
2024/01/15 01:58:38;;;;;;;4.93;2.47;;;;;;;-0.52;66.19;94912.56;5132789;27;20438;-55
2024/01/15 02:01:07;;;;;;;5.37;2.13;;;;;;;-0.68;67.24;94921.66;5132957;27;20509;-56
2024/01/15 02:03:38;;;;;;;21.03;3.60;;;;;;;-0.61;67.28;94906.03;5132919;27;20510;-56
2024/01/15 02:06:07;;;;;;;4.47;1.63;;;;;;;-0.41;66.91;94917.91;5132738;27;20957;-56
2024/01/15 02:08:37;;;;;;;5.63;2.47;;;;;;;-0.39;66.98;94905.47;5132426;27;20491;-56
2024/01/15 02:11:06;;;;;;;5.83;1.67;;;;;;;-0.38;66.61;94914.09;5132390;27;20566;-56
2024/01/15 02:13:34;;;;;;;6.37;2.13;;;;;;;-0.70;67.77;94914.09;5132361;27;20438;-56
2024/01/15 02:16:03;;;;;;;6.20;1.23;;;;;;;-0.59;67.64;94914.44;5131669;27;20441;-56
2024/01/15 02:18:42;;;;;;;5.17;2.03;;;;;;;-0.75;68.78;94913.91;5131449;27;20434;-56
2024/01/15 02:21:12;;;;;;;1.87;1.50;;;;;;;-0.48;67.06;94913.75;5131437;27;20434;-56
2024/01/15 02:23:42;;;;;;;3.53;3.20;;;;;;;-0.50;67.19;94900.94;5131929;27;20438;-55
2024/01/15 02:26:11;;;;;;;1.73;1.00;;;;;;;-0.48;66.87;94888.50;5131578;27;20458;-55
2024/01/15 02:28:41;;;;;;;5.30;1.53;;;;;;;-0.41;66.55;94897.09;5132042;28;20466;-56
2024/01/15 02:31:09;;;;;;;5.40;1.03;;;;;;;-0.79;66.99;94841.72;5132235;28;21011;-55
2024/01/15 02:33:38;;;;;;;0.90;0.90;;;;;;;-0.33;66.93;94903.84;5131999;28;20431;-55
2024/01/15 02:36:08;;;;;;;2.13;1.10;;;;;;;-0.37;66.12;94906.06;5131617;27;20431;-55
2024/01/15 02:38:36;;;;;;;1.27;1.23;;;;;;;-0.86;66.29;94841.72;5134573;27;20438;-56
2024/01/15 02:41:06;;;;;;;2.13;1.80;;;;;;;-0.51;66.75;94906.38;5109140;27;20477;-55
2024/01/15 02:43:35;;;;;;;4.10;1.80;;;;;;;-0.42;66.42;94903.28;5136431;27;20449;-55
2024/01/15 02:46:04;;;;;;;4.97;2.90;;;;;;;-0.48;66.47;94891.13;5136104;27;20542;-55
2024/01/15 02:48:32;;;;;;;2.93;2.00;;;;;;;-0.44;66.52;94892.31;5136071;27;20434;-55
2024/01/15 02:51:02;;;;;;;6.03;1.20;;;;;;;-0.45;66.56;94895.91;5136433;27;20474;-56
2024/01/15 02:53:31;;;;;;;2.30;1.10;;;;;;;-0.35;66.18;94900.63;5135919;27;20469;-56
2024/01/15 02:56:00;;;;;;;4.00;3.80;;;;;;;-0.72;66.03;94834.66;5135460;27;20991;-56
2024/01/15 02:58:30;;;;;;;2.50;2.30;;;;;;;-0.45;66.30;94880.28;5135593;27;20439;-56
2024/01/15 03:00:58;;;;;;;1.03;0.90;;;;;;;-0.56;66.50;94878.38;5125117;27;20439;-56
2024/01/15 03:03:27;;;;;;;1.90;1.40;;;;;;;-0.48;66.24;94867.69;5132583;27;20468;-56
2024/01/15 03:05:55;;;;;;;2.10;1.47;;;;;;;-0.97;67.74;94875.44;5135431;27;20445;-56
2024/01/15 03:08:24;;;;;;;5.10;1.90;;;;;;;-1.02;68.85;94877.84;5135761;27;20434;-56
2024/01/15 03:10:53;;;;;;;1.10;0.97;;;;;;;-0.70;67.71;94866.44;5136009;27;21008;-56
2024/01/15 03:13:21;;;;;;;7.23;3.13;;;;;;;-0.54;66.65;94863.34;5135627;27;20466;-55
2024/01/15 03:15:51;;;;;;;0.97;0.97;;;;;;;-0.48;66.34;94854.66;5135642;27;20430;-55
2024/01/15 03:18:20;;;;;;;1.73;1.00;;;;;;;-0.66;66.97;94865.03;5135797;27;20966;-55
2024/01/15 03:20:49;;;;;;;6.60;1.30;;;;;;;-0.69;67.36;94868.06;5136010;27;20466;-55
2024/01/15 03:23:17;;;;;;;1.07;1.07;;;;;;;-0.58;67.41;94869.19;5135867;27;20457;-55
2024/01/15 03:25:46;;;;;;;4.07;2.13;;;;;;;-0.87;68.52;94875.78;5135007;27;20466;-55
2024/01/15 03:28:15;;;;;;;3.90;2.27;;;;;;;-0.80;68.70;94874.72;5135063;27;20434;-56
2024/01/15 03:30:43;;;;;;;2.50;2.40;;;;;;;-0.80;68.33;94877.31;5129038;27;20461;-56
2024/01/15 03:33:13;;;;;;;2.40;2.30;;;;;;;-0.97;68.63;94872.81;5134578;27;20442;-56
2024/01/15 03:35:42;;;;;;;2.73;2.63;;;;;;;-0.85;68.50;94873.75;5134578;27;20445;-56
2024/01/15 03:38:11;;;;;;;1.37;1.17;;;;;;;-0.70;67.67;94871.66;5135788;27;20457;-56
2024/01/15 03:40:39;;;;;;;3.77;1.33;;;;;;;-1.31;67.54;94783.00;5135341;27;20860;-56
2024/01/15 03:43:08;;;;;;;8.77;1.17;;;;;;;-1.05;68.34;94841.88;5134514;27;20442;-56
2024/01/15 03:45:37;;;;;;;1.73;1.60;;;;;;;-0.87;68.92;94876.56;5134963;27;20439;-56
2024/01/15 03:48:06;;;;;;;9.97;1.80;;;;;;;-0.81;68.34;94869.75;5135309;27;20495;-56
2024/01/15 03:50:36;;;;;;;3.40;1.70;;;;;;;-0.84;68.11;94867.56;5134722;27;20898;-56
2024/01/15 03:53:05;;;;;;;1.67;1.60;;;;;;;-0.87;67.72;94852.34;5135195;27;20469;-57
2024/01/15 03:55:34;;;;;;;5.53;1.90;;;;;;;-1.06;67.54;94802.06;5134674;27;20466;-56
2024/01/15 03:58:02;;;;;;;1.63;1.43;;;;;;;-0.73;67.48;94864.25;5135030;27;20439;-56
2024/01/15 04:00:32;;;;;;;4.70;1.30;;;;;;;-0.84;68.08;94855.34;5134875;27;20842;-56
2024/01/15 04:03:01;;;;;;;2.97;1.90;;;;;;;-0.82;67.67;94847.31;5134790;27;20443;-56
2024/01/15 04:05:30;;;;;;;3.93;3.10;;;;;;;-0.74;68.39;94865.28;5135048;27;20446;-56
2024/01/15 04:08:00;;;;;;;1.43;1.33;;;;;;;-0.66;68.08;94867.63;5134703;27;20797;-56
2024/01/15 04:10:29;;;;;;;2.37;2.27;;;;;;;-0.73;68.13;94867.66;5134377;27;20435;-56
2024/01/15 04:12:59;;;;;;;2.50;2.30;;;;;;;-0.71;68.00;94857.84;5134631;27;20473;-56
2024/01/15 04:15:28;;;;;;;2.13;2.03;;;;;;;-0.83;68.11;94856.13;5134358;27;20443;-56
2024/01/15 04:17:56;;;;;;;2.03;1.27;;;;;;;-0.90;67.93;94853.56;5133150;27;20444;-55
2024/01/15 04:20:25;;;;;;;1.40;1.30;;;;;;;-1.18;67.58;94801.13;5134203;27;20430;-56
2024/01/15 04:22:54;;;;;;;3.03;1.40;;;;;;;-0.94;67.44;94818.59;5133927;27;20868;-56
2024/01/15 04:25:24;;;;;;;1.50;1.30;;;;;;;-0.57;66.89;94861.16;5134594;27;20875;-56
2024/01/15 04:27:52;;;;;;;3.13;2.90;;;;;;;-0.60;67.31;94856.38;5134299;27;20438;-56
2024/01/15 04:30:21;;;;;;;3.70;1.47;;;;;;;-0.49;67.37;94873.91;5133909;27;20494;-55
2024/01/15 04:32:50;;;;;;;1.27;1.17;;;;;;;-0.68;68.27;94869.63;5134122;27;20857;-55
2024/01/15 04:35:18;;;;;;;1.47;1.37;;;;;;;-0.82;68.73;94860.34;5133790;27;20441;-56
2024/01/15 04:37:47;;;;;;;3.47;2.70;;;;;;;-0.70;68.89;94864.66;5133705;27;20999;-55
2024/01/15 04:40:16;;;;;;;2.57;1.50;;;;;;;-0.80;69.28;94861.72;5134209;27;20439;-55
2024/01/15 04:42:46;;;;;;;1.90;1.80;;;;;;;-0.61;68.97;94860.00;5133050;27;20899;-55
2024/01/15 04:45:15;;;;;;;3.20;2.13;;;;;;;-0.53;68.73;94867.53;5134225;27;20868;-55
2024/01/15 04:47:44;;;;;;;6.23;2.97;;;;;;;-0.87;68.58;94808.13;5133416;27;20446;-55
2024/01/15 04:50:12;;;;;;;10.77;2.70;;;;;;;-0.54;68.16;94836.50;5133413;27;20431;-55
2024/01/15 04:52:41;;;;;;;2.60;2.50;;;;;;;-0.43;68.49;94861.88;5133929;27;20609;-55
2024/01/15 04:55:10;;;;;;;1.50;1.40;;;;;;;-0.40;68.25;94857.00;5133575;27;20450;-56
2024/01/15 04:57:38;;;;;;;3.80;3.50;;;;;;;-0.60;67.53;94788.72;5132861;27;20435;-56
2024/01/15 05:00:10;;;;;;;7.33;3.13;;;;;;;-0.30;67.78;94862.53;5132729;27;21027;-56
2024/01/15 05:02:38;;;;;;;3.80;3.60;;;;;;;-0.54;68.47;94865.94;5133932;27;20511;-55
2024/01/15 05:05:07;;;;;;;3.40;2.23;;;;;;;-0.38;68.26;94864.63;5133480;27;20430;-55
2024/01/15 05:07:36;;;;;;;2.57;2.37;;;;;;;-0.41;67.86;94852.03;5133455;27;20449;-55
2024/01/15 05:10:05;;;;;;;3.50;3.20;;;;;;;-0.43;67.87;94861.88;5133573;27;20435;-56
2024/01/15 05:12:33;;;;;;;5.50;2.00;;;;;;;-0.45;68.25;94856.84;5133577;27;20523;-56
2024/01/15 05:15:02;;;;;;;10.70;4.03;;;;;;;-0.30;67.45;94857.34;5133470;27;20489;-56
2024/01/15 05:17:33;;;;;;;3.87;3.67;;;;;;;-0.64;68.47;94823.97;5133743;27;20445;-56
2024/01/15 05:20:01;;;;;;;5.90;2.60;;;;;;;-0.51;68.02;94860.31;5133068;27;20981;-55
2024/01/15 05:22:31;;;;;;;2.77;2.10;;;;;;;-0.70;68.37;94830.03;5133248;27;20554;-55
2024/01/15 05:24:59;;;;;;;3.07;1.70;;;;;;;-0.61;68.10;94852.19;5133270;27;20594;-56
2024/01/15 05:27:28;;;;;;;3.43;2.77;;;;;;;-1.20;68.10;94782.34;5132539;27;20438;-55
2024/01/15 05:29:56;;;;;;;4.00;2.43;;;;;;;-0.92;68.69;94813.19;5133166;27;20823;-55
2024/01/15 05:32:25;;;;;;;1.47;1.47;;;;;;;-1.70;68.52;94680.13;5131809;27;20474;-56
2024/01/15 05:34:55;;;;;;;3.60;2.00;;;;;;;-0.63;68.04;94838.56;5132730;27;20469;-55
2024/01/15 05:37:24;;;;;;;2.13;2.03;;;;;;;-0.36;67.65;94845.19;5132757;27;20447;-55
2024/01/15 05:39:52;;;;;;;1.73;1.17;;;;;;;0.00;70.15;94842.63;5132947;27;20434;-55
2024/01/15 05:42:21;;;;;;;3.70;1.60;;;;;;;-0.68;69.17;94844.41;5132515;27;20450;-56
2024/01/15 05:44:50;;;;;;;5.30;2.20;;;;;;;-1.51;69.39;94746.75;5132915;27;20521;-55
2024/01/15 05:47:18;;;;;;;2.10;2.00;;;;;;;-0.96;69.00;94836.19;5132290;27;20499;-55
2024/01/15 05:49:47;;;;;;;5.80;3.67;;;;;;;-1.55;70.08;94856.50;5132868;27;20451;-55
2024/01/15 05:52:17;;;;;;;1.70;1.43;;;;;;;-1.75;70.52;94751.88;5132069;27;20923;-56
2024/01/15 05:54:46;;;;;;;2.63;1.50;;;;;;;-1.17;71.27;94848.75;5132389;27;20441;-55
2024/01/15 05:57:14;;;;;;;2.70;0.87;;;;;;;-0.97;70.06;94850.22;5131988;27;20430;-56
2024/01/15 05:59:45;;;;;;;1.40;1.30;;;;;;;-0.75;68.84;94850.69;5132586;27;20455;-55
2024/01/15 06:02:14;;;;;;;0.97;0.97;;;;;;;-1.02;69.89;94850.06;5106780;27;20494;-54
2024/01/15 06:04:43;;;;;;;3.00;2.80;;;;;;;-1.38;69.36;94793.47;5131045;27;20506;-55
2024/01/15 06:07:11;;;;;;;2.50;1.73;;;;;;;-2.12;69.32;94652.97;5126762;27;20466;-55
2024/01/15 06:09:41;;;;;;;1.00;0.90;;;;;;;-1.23;69.52;94768.97;5132572;27;20467;-55
2024/01/15 06:12:10;;;;;;;2.07;2.03;;;;;;;-1.04;70.20;94830.47;5129785;27;20470;-55
2024/01/15 06:14:38;;;;;;;6.33;1.70;;;;;;;-0.75;69.52;94840.25;5121218;27;20434;-55
2024/01/15 06:17:07;;;;;;;3.67;2.13;;;;;;;-0.83;69.34;94828.31;5132579;27;20445;-55
2024/01/15 06:19:36;;;;;;;2.40;2.20;;;;;;;-0.63;69.09;94831.56;5132621;27;20435;-56
2024/01/15 06:22:05;;;;;;;2.20;1.80;;;;;;;-1.08;69.67;94785.06;5132655;27;20438;-55
2024/01/15 06:24:33;;;;;;;7.87;1.43;;;;;;;-0.83;69.61;94828.31;5132151;27;21099;-55
2024/01/15 06:27:04;;;;;;;3.47;3.13;;;;;;;-0.65;69.75;94833.59;5132851;27;20438;-55
2024/01/15 06:29:33;;;;;;;2.47;2.37;;;;;;;-0.70;69.81;94837.81;5131098;28;20441;-55
2024/01/15 06:32:02;;;;;;;3.17;2.17;;;;;;;-0.41;69.31;94832.00;5131668;27;20441;-55
2024/01/15 06:34:31;;;;;;;2.83;2.30;;;;;;;-0.42;67.97;94801.78;5132122;28;20485;-55
2024/01/15 06:36:59;;;;;;;4.03;1.93;;;;;;;-0.25;68.11;94817.63;5131632;28;20438;-55
2024/01/15 06:39:28;;;;;;;3.60;2.67;;;;;;;-0.33;69.36;94829.13;5119212;28;20475;-55
2024/01/15 06:41:57;;;;;;;3.60;2.43;;;;;;;-0.54;69.57;94787.88;5131773;28;20438;-54
2024/01/15 06:44:27;;;;;;;4.00;2.80;;;;;;;-0.04;68.68;94830.25;5131811;28;20459;-55
2024/01/15 06:46:57;;;;;;;2.83;2.20;;;;;;;0.03;67.89;94825.78;5128929;28;20466;-55
2024/01/15 06:49:25;;;;;;;7.23;4.20;;;;;;;-0.26;69.39;94834.28;5124425;28;20969;-55
2024/01/15 06:51:54;;;;;;;11.23;3.67;;;;;;;-0.03;68.41;94811.78;5131474;28;20434;-55
2024/01/15 06:54:23;;;;;;;15.30;4.00;;;;;;;-0.45;69.35;94791.78;5132246;27;20989;-54
2024/01/15 06:56:52;;;;;;;18.87;6.63;;;;;;;-0.07;69.96;94854.13;5132028;28;20462;-55
2024/01/15 06:59:21;;;;;;;18.67;5.90;;;;;;;0.24;68.78;94843.59;5131830;27;20470;-55
2024/01/15 07:01:51;;;;;;;4.70;2.63;;;;;;;0.43;67.78;94858.22;5131793;28;20466;-55
2024/01/15 07:04:19;;;;;;;4.30;4.00;;;;;;;0.38;68.49;94857.28;5132029;28;20526;-55
2024/01/15 07:06:48;;;;;;;13.67;4.70;;;;;;;0.91;67.37;94853.00;5131791;27;20449;-55
2024/01/15 07:09:17;;;;;;;6.50;5.70;;;;;;;1.47;66.00;94864.91;5132298;28;20469;-55
2024/01/15 07:11:47;;;;;;;3.80;3.50;;;;;;;2.28;63.17;94852.69;5121509;28;20486;-55
2024/01/15 07:14:16;;;;;;;6.80;5.50;;;;;;;2.68;61.75;94857.19;5129504;28;20470;-55
2024/01/15 07:16:45;;;;;;;6.80;5.03;;;;;;;2.76;60.05;94773.09;5131546;28;20465;-54
2024/01/15 07:19:17;;;;;;;6.90;4.83;;;;;;;3.07;60.00;94854.53;5131227;28;20816;-55
2024/01/15 07:21:46;;;;;;;2.10;1.80;;;;;;;3.83;57.41;94851.41;5131957;27;20434;-54
2024/01/15 07:24:15;;;;;;;15.30;4.30;;;;;;;3.67;56.12;94841.69;5133223;27;20517;-55
2024/01/15 07:26:44;;;;;;;11.80;5.20;;;;;;;3.84;57.02;94845.09;5135487;27;20476;-55
2024/01/15 07:29:13;;;;;;;13.70;6.93;;;;;;;4.77;57.62;94825.16;5135324;27;20474;-56
2024/01/15 07:31:42;;;;;;;5.90;5.40;;;;;;;5.05;55.89;94833.63;5135482;27;20521;-56
2024/01/15 07:34:10;;;;;;;9.23;5.77;;;;;;;4.33;55.02;94762.16;5129918;27;20474;-55
2024/01/15 07:36:41;;;;;;;8.63;7.63;;;;;;;4.01;55.60;94841.69;5127281;27;20970;-55
2024/01/15 07:39:10;;;;;;;12.67;6.67;;;;;;;4.32;54.69;94767.66;5134377;27;20514;-55
2024/01/15 07:41:39;;;;;;;6.70;4.40;;;;;;;3.94;55.79;94825.34;5135627;27;20487;-55
2024/01/15 07:44:07;;;;;;;12.30;6.50;;;;;;;4.10;55.22;94787.84;5135085;27;20434;-55
2024/01/15 07:46:36;;;;;;;15.10;4.90;;;;;;;5.09;53.92;94837.34;5134936;27;20497;-55
2024/01/15 07:49:05;;;;;;;3.43;3.00;;;;;;;5.12;53.54;94839.47;5108743;27;20442;-55
2024/01/15 07:51:34;;;;;;;4.67;4.37;;;;;;;5.53;52.81;94822.28;5134790;27;20801;-55
2024/01/15 07:54:05;;;;;;;4.47;3.13;;;;;;;6.14;52.22;94825.41;5134868;27;20485;-55
2024/01/15 07:56:33;;;;;;;4.30;4.00;;;;;;;6.32;50.41;94828.41;5134511;27;20430;-55
2024/01/15 07:59:02;;;;;;;13.10;2.40;;;;;;;6.69;49.59;94823.09;5135173;27;20518;-55
2024/01/15 08:01:31;;;;;;;8.47;3.00;;;;;;;7.01;49.79;94809.75;5135146;27;20503;-55
2024/01/15 08:03:59;;;;;;;1.63;1.53;;;;;;;7.56;47.70;94811.75;5134803;27;20453;-55
2024/01/15 08:06:28;;;;;;;3.63;2.37;;;;;;;6.82;48.85;94816.56;5134266;27;20430;-55
2024/01/15 08:08:59;;;;;;;5.07;1.73;;;;;;;5.87;49.64;94769.47;5135025;27;20815;-55
2024/01/15 08:11:29;;;;;;;4.33;2.90;;;;;;;5.74;50.69;94765.41;5134353;27;20431;-55
2024/01/15 08:13:57;;;;;;;2.27;2.17;;;;;;;6.16;50.94;94792.53;5134624;27;20553;-56
2024/01/15 08:16:27;;;;;;;2.60;2.50;;;;;;;6.38;51.50;94829.22;5134597;27;20966;-56
2024/01/15 08:18:56;;;;;;;4.00;2.97;;;;;;;6.32;50.84;94833.66;5134021;27;20441;-55
2024/01/15 08:21:25;;;;;;;4.13;2.30;;;;;;;6.57;50.46;94819.06;5134147;27;20487;-56
2024/01/15 08:23:53;;;;;;;12.57;2.60;;;;;;;6.02;50.94;94816.91;5134113;27;20473;-56
2024/01/15 08:26:22;;;;;;;3.20;2.63;;;;;;;5.98;50.84;94794.78;5134009;27;20462;-55
2024/01/15 08:28:52;;;;;;;2.20;2.10;;;;;;;6.18;51.80;94842.25;5134587;27;20443;-56
2024/01/15 08:31:21;;;;;;;5.33;3.13;;;;;;;6.55;50.59;94836.97;5133863;27;20431;-56
2024/01/15 08:33:49;;;;;;;5.40;2.90;;;;;;;6.10;52.71;94829.56;5134039;27;20465;-56
2024/01/15 08:36:19;;;;;;;4.27;4.03;;;;;;;6.13;52.21;94832.50;5132983;27;20812;-56
2024/01/15 08:38:47;;;;;;;2.17;2.07;;;;;;;5.65;53.01;94840.50;5134475;27;20434;-55
2024/01/15 08:41:16;;;;;;;1.27;0.93;;;;;;;5.53;53.15;94830.16;5134194;27;20857;-55
2024/01/15 08:43:45;;;;;;;2.20;2.07;;;;;;;5.25;54.16;94835.66;5133845;27;20445;-54
2024/01/15 08:46:15;;;;;;;3.20;2.83;;;;;;;5.03;55.55;94838.31;5133968;27;20434;-54
2024/01/15 08:48:43;;;;;;;10.13;2.87;;;;;;;4.91;55.23;94836.84;5133945;27;20481;-54
2024/01/15 08:51:12;;;;;;;0.83;0.83;;;;;;;4.74;56.11;94821.19;5133876;27;20435;-54
2024/01/15 08:53:41;;;;;;;1.57;0.80;;;;;;;5.06;55.35;94822.06;5132964;27;20892;-54
2024/01/15 08:56:10;;;;;;;4.43;0.93;;;;;;;5.25;56.22;94822.53;5134023;27;20438;-54
2024/01/15 08:58:39;;;;;;;0.80;0.70;;;;;;;5.69;53.90;94808.19;5133196;27;20435;-54
2024/01/15 09:01:07;;;;;;;1.17;0.90;;;;;;;5.94;53.35;94812.91;5133771;27;20450;-55
2024/01/15 09:03:38;;;;;;;0.70;0.70;;;;;;;5.77;53.07;94827.97;5134292;27;20469;-55
2024/01/15 09:06:07;;;;;;;18.90;1.33;;;;;;;5.74;54.13;94802.97;5132951;27;20438;-60
2024/01/15 09:08:35;;;;;;;3.53;1.60;;;;;;;5.69;54.28;94813.47;5133160;27;20449;-55
2024/01/15 09:11:04;;;;;;;1.77;1.67;;;;;;;5.49;54.82;94808.03;5134091;27;20950;-55
2024/01/15 09:13:32;;;;;;;0.80;0.80;;;;;;;5.73;53.39;94801.41;5133858;27;20435;-56
2024/01/15 09:16:02;;;;;;;0.97;0.90;;;;;;;6.21;52.84;94797.03;5132866;27;20495;-55
2024/01/15 09:18:31;;;;;;;4.10;2.27;;;;;;;5.98;53.59;94803.47;5133465;27;20434;-55
2024/01/15 09:21:03;;;;;;;1.80;1.70;;;;;;;6.30;53.57;94803.38;5133036;27;20446;-55
2024/01/15 09:23:32;;;;;;;6.03;1.57;;;;;;;6.70;52.16;94792.28;5133597;27;20439;-55
2024/01/15 09:26:00;;;;;;;2.67;2.47;;;;;;;7.25;51.94;94778.47;5133219;27;20508;-55
2024/01/15 09:28:29;;;;;;;1.23;1.20;;;;;;;7.00;51.73;94776.56;5133323;27;20517;-55
2024/01/15 09:30:57;;;;;;;3.90;3.50;;;;;;;7.17;51.80;94765.81;5129055;27;21101;-55
2024/01/15 09:33:26;;;;;;;3.00;1.47;;;;;;;7.32;51.76;94763.97;5112939;28;20427;-55
2024/01/15 09:35:55;;;;;;;0.83;0.83;;;;;;;7.76;50.55;94748.44;5112436;28;21002;-55
2024/01/15 09:38:25;;;;;;;6.33;0.80;;;;;;;7.46;50.63;94743.19;5113178;28;20435;-55
2024/01/15 09:40:54;;;;;;;2.70;2.50;;;;;;;6.89;52.09;94751.25;5118424;27;20463;-55
2024/01/15 09:43:23;;;;;;;5.17;2.50;;;;;;;6.51;52.86;94751.63;5132608;27;21007;-54
2024/01/15 09:45:52;;;;;;;2.10;1.90;;;;;;;6.58;53.16;94747.72;5126230;27;20983;-55
2024/01/15 09:48:21;;;;;;;6.90;2.90;;;;;;;6.67;52.52;94740.13;5130282;27;20430;-55
2024/01/15 09:50:51;;;;;;;1.10;1.03;;;;;;;6.72;52.05;94742.78;5132725;27;20474;-55
2024/01/15 09:53:20;;;;;;;1.43;0.80;;;;;;;7.01;51.83;94741.25;5128006;27;20471;-54
2024/01/15 09:55:53;;;;;;;11.80;1.73;;;;;;;6.82;52.19;94732.28;5132112;27;20982;-54
2024/01/15 09:58:22;;;;;;;2.17;2.07;;;;;;;6.35;52.50;94684.97;5132166;27;20442;-55
2024/01/15 10:00:51;;;;;;;3.77;3.23;;;;;;;6.61;53.32;94722.72;5133221;27;20438;-54
2024/01/15 10:03:21;;;;;;;1.93;1.80;;;;;;;6.55;53.72;94710.59;5129191;27;20440;-54
2024/01/15 10:05:50;;;;;;;1.37;1.37;;;;;;;6.23;52.78;94619.44;5130250;27;20438;-54
2024/01/15 10:08:20;;;;;;;1.60;1.50;;;;;;;6.70;52.32;94676.41;5132629;27;20479;-55
2024/01/15 10:10:49;;;;;;;2.17;2.03;;;;;;;7.38;51.67;94669.88;5127231;27;20439;-55
2024/01/15 10:13:20;;;;;;;3.43;1.40;;;;;;;7.71;49.78;94644.78;5132481;27;20438;-55
2024/01/15 10:15:48;;;;;;;2.00;1.40;;;;;;;7.48;49.62;94619.78;5125908;27;20481;-55
2024/01/15 10:18:17;;;;;;;7.57;1.93;;;;;;;7.88;49.64;94674.28;5132342;27;20434;-55
2024/01/15 10:20:46;;;;;;;2.40;2.20;;;;;;;7.55;48.78;94676.47;5131836;27;20442;-55
2024/01/15 10:23:15;;;;;;;1.63;1.57;;;;;;;7.48;49.15;94673.31;5132299;27;20934;-55
2024/01/15 10:25:44;;;;;;;2.83;1.50;;;;;;;7.69;49.23;94664.31;5132564;27;20556;-55
2024/01/15 10:28:14;;;;;;;1.47;1.37;;;;;;;7.95;50.12;94664.25;5132598;27;20495;-55
2024/01/15 10:30:44;;;;;;;1.13;1.03;;;;;;;8.24;47.93;94628.25;5132410;27;20438;-55
2024/01/15 10:33:15;;;;;;;5.60;1.87;;;;;;;8.17;48.14;94638.31;5132317;28;20434;-54
2024/01/15 10:35:44;;;;;;;2.93;2.63;;;;;;;8.34;47.60;94664.41;5132345;27;20919;-55
2024/01/15 10:38:13;;;;;;;1.93;1.77;;;;;;;7.93;48.53;94653.16;5132418;27;20449;-55
2024/01/15 10:40:42;;;;;;;2.40;2.30;;;;;;;8.18;47.54;94656.53;5132109;28;20499;-54
2024/01/15 10:43:11;;;;;;;0.60;0.60;;;;;;;7.90;46.91;94637.88;5132504;28;20862;-55
2024/01/15 10:45:40;;;;;;;1.97;0.90;;;;;;;7.68;47.75;94654.81;5131137;28;20438;-55
2024/01/15 10:48:10;;;;;;;7.00;1.50;;;;;;;7.37;46.90;94587.38;5131939;27;20442;-55
2024/01/15 10:50:39;;;;;;;1.10;0.73;;;;;;;7.29;48.33;94648.53;5126422;27;20446;-55
2024/01/15 10:53:11;;;;;;;7.30;2.00;;;;;;;7.23;48.79;94644.34;5128325;28;20896;-55
2024/01/15 10:55:40;;;;;;;2.93;0.93;;;;;;;6.92;49.26;94616.41;5131721;27;20462;-55
2024/01/15 10:58:10;;;;;;;1.60;1.53;;;;;;;7.08;49.26;94631.16;5132088;27;20452;-55
2024/01/15 11:00:39;;;;;;;8.13;2.00;;;;;;;7.40;48.68;94629.03;5136497;27;20438;-55
2024/01/15 11:03:10;;;;;;;1.63;1.30;;;;;;;7.60;48.55;94622.91;5136343;27;20430;-55
2024/01/15 11:05:39;;;;;;;1.67;1.57;;;;;;;6.94;49.42;94616.91;5135494;27;20507;-55
2024/01/15 11:08:08;;;;;;;14.33;1.63;;;;;;;6.48;50.17;94560.78;5110349;27;20931;-55
2024/01/15 11:10:41;;;;;;;1.00;0.90;;;;;;;7.10;49.77;94620.34;5136035;27;20931;-53
2024/01/15 11:13:11;;;;;;;1.93;1.83;;;;;;;6.97;49.67;94580.31;5136425;27;20430;-54
2024/01/15 11:15:59;;;;;;;4.27;1.50;;;;;;;7.00;50.27;94623.78;5135314;27;20519;-53
2024/01/15 11:18:31;;;;;;;2.73;1.23;;;;;;;6.17;52.01;94578.38;5135803;27;20946;-54
2024/01/15 11:21:27;;;;;;;2.00;1.90;;;;;;;6.16;51.45;94618.91;5135443;27;20433;-54
2024/01/15 11:23:58;;;;;;;2.13;1.37;;;;;;;6.26;51.57;94608.41;5135075;27;20431;-54
2024/01/15 11:26:34;;;;;;;3.10;2.90;;;;;;;6.19;51.30;94614.97;5135467;27;20435;-54
2024/01/15 11:29:05;;;;;;;1.03;0.93;;;;;;;6.48;50.34;94612.66;5135522;27;20529;-54
2024/01/15 11:31:59;;;;;;;1.83;1.13;;;;;;;6.70;50.44;94603.50;5135851;27;20438;-55
2024/01/15 11:35:00;;;;;;;0.80;0.80;;;;;;;6.63;49.09;94604.78;5135216;27;20442;-54
2024/01/15 11:37:50;;;;;;;12.60;0.50;;;;;;;6.82;48.37;94609.28;5135026;27;20938;-54
2024/01/15 11:40:20;;;;;;;3.47;1.17;;;;;;;7.20;47.81;94600.06;5134730;27;20470;-54
2024/01/15 11:42:51;;;;;;;5.00;0.80;;;;;;;6.91;48.37;94591.88;5135163;27;20474;-55
2024/01/15 11:45:21;;;;;;;1.80;1.70;;;;;;;6.71;48.25;94575.28;5134647;27;20496;-55
2024/01/15 11:48:11;;;;;;;3.67;2.87;;;;;;;6.75;50.04;94582.44;5135656;27;20435;-55